sensor_id;sensor_type;location;lat;lon;timestamp;temperature;humidity
70867;HTU21D;58487;53.474;49.470;2023-04-15T00:00:44;-1.02;49.13
70867;HTU21D;58487;53.474;49.470;2023-04-15T00:03:10;-1.03;48.34
70867;HTU21D;58487;53.474;49.470;2023-04-15T00:05:37;-1.04;48.93
70867;HTU21D;58487;53.474;49.470;2023-04-15T00:08:03;-1.12;49.08
70867;HTU21D;58487;53.474;49.470;2023-04-15T00:10:32;-1.13;49.98
70867;HTU21D;58487;53.474;49.470;2023-04-15T00:13:01;-1.16;49.02
70867;HTU21D;58487;53.474;49.470;2023-04-15T00:15:29;-1.17;48.89
70867;HTU21D;58487;53.474;49.470;2023-04-15T00:17:55;-1.19;48.96
70867;HTU21D;58487;53.474;49.470;2023-04-15T00:20:21;-1.24;49.04
70867;HTU21D;58487;53.474;49.470;2023-04-15T00:22:48;-1.26;49.63
70867;HTU21D;58487;53.474;49.470;2023-04-15T00:25:14;-1.28;49.18
70867;HTU21D;58487;53.474;49.470;2023-04-15T00:27:41;-1.31;49.79
70867;HTU21D;58487;53.474;49.470;2023-04-15T00:30:08;-1.33;49.10
70867;HTU21D;58487;53.474;49.470;2023-04-15T00:32:34;-1.39;49.56
70867;HTU21D;58487;53.474;49.470;2023-04-15T00:35:01;-1.42;48.84
70867;HTU21D;58487;53.474;49.470;2023-04-15T00:37:27;-1.46;49.84
70867;HTU21D;58487;53.474;49.470;2023-04-15T00:39:53;-1.45;49.38
70867;HTU21D;58487;53.474;49.470;2023-04-15T00:42:19;-1.48;49.12
70867;HTU21D;58487;53.474;49.470;2023-04-15T00:44:46;-1.50;49.50
70867;HTU21D;58487;53.474;49.470;2023-04-15T00:47:14;-1.55;49.66
70867;HTU21D;58487;53.474;49.470;2023-04-15T00:49:41;-1.58;49.75
70867;HTU21D;58487;53.474;49.470;2023-04-15T00:52:07;-1.57;51.38
70867;HTU21D;58487;53.474;49.470;2023-04-15T00:54:33;-1.61;52.06
70867;HTU21D;58487;53.474;49.470;2023-04-15T00:57:00;-1.63;50.59
70867;HTU21D;58487;53.474;49.470;2023-04-15T00:59:27;-1.67;49.15
70867;HTU21D;58487;53.474;49.470;2023-04-15T01:01:54;-1.69;48.63
70867;HTU21D;58487;53.474;49.470;2023-04-15T01:04:21;-1.69;48.79
70867;HTU21D;58487;53.474;49.470;2023-04-15T01:06:47;-1.75;49.44
70867;HTU21D;58487;53.474;49.470;2023-04-15T01:09:14;-1.72;48.91
70867;HTU21D;58487;53.474;49.470;2023-04-15T01:11:40;-1.77;49.81
70867;HTU21D;58487;53.474;49.470;2023-04-15T01:14:08;-1.78;49.44
70867;HTU21D;58487;53.474;49.470;2023-04-15T01:16:36;-1.82;50.41
70867;HTU21D;58487;53.474;49.470;2023-04-15T01:19:09;-1.80;49.91
70867;HTU21D;58487;53.474;49.470;2023-04-15T01:21:39;-1.85;50.10
70867;HTU21D;58487;53.474;49.470;2023-04-15T01:24:08;-1.84;49.39
70867;HTU21D;58487;53.474;49.470;2023-04-15T01:26:39;-1.91;51.01
70867;HTU21D;58487;53.474;49.470;2023-04-15T01:29:05;-1.94;51.28
70867;HTU21D;58487;53.474;49.470;2023-04-15T01:31:32;-1.91;50.66
70867;HTU21D;58487;53.474;49.470;2023-04-15T01:33:58;-1.92;49.83
70867;HTU21D;58487;53.474;49.470;2023-04-15T01:36:25;-1.99;51.88
70867;HTU21D;58487;53.474;49.470;2023-04-15T01:38:51;-1.99;50.31
70867;HTU21D;58487;53.474;49.470;2023-04-15T01:41:24;-2.00;51.87
70867;HTU21D;58487;53.474;49.470;2023-04-15T01:43:50;-2.02;51.90
70867;HTU21D;58487;53.474;49.470;2023-04-15T01:46:17;-2.03;52.14
70867;HTU21D;58487;53.474;49.470;2023-04-15T01:48:43;-2.06;51.69
70867;HTU21D;58487;53.474;49.470;2023-04-15T01:51:10;-2.09;51.68
70867;HTU21D;58487;53.474;49.470;2023-04-15T01:53:37;-2.14;52.12
70867;HTU21D;58487;53.474;49.470;2023-04-15T01:56:03;-2.10;52.32
70867;HTU21D;58487;53.474;49.470;2023-04-15T01:58:29;-2.15;53.97
70867;HTU21D;58487;53.474;49.470;2023-04-15T02:00:56;-2.16;53.38
70867;HTU21D;58487;53.474;49.470;2023-04-15T02:03:24;-2.30;56.55
70867;HTU21D;58487;53.474;49.470;2023-04-15T02:05:50;-2.23;52.30
70867;HTU21D;58487;53.474;49.470;2023-04-15T02:08:17;-2.22;52.37
70867;HTU21D;58487;53.474;49.470;2023-04-15T02:10:43;-2.23;53.50
70867;HTU21D;58487;53.474;49.470;2023-04-15T02:13:09;-2.22;53.66
70867;HTU21D;58487;53.474;49.470;2023-04-15T02:15:35;-2.28;51.82
70867;HTU21D;58487;53.474;49.470;2023-04-15T02:18:03;-2.26;51.93
70867;HTU21D;58487;53.474;49.470;2023-04-15T02:20:29;-2.30;51.53
70867;HTU21D;58487;53.474;49.470;2023-04-15T02:22:56;-2.29;51.46
70867;HTU21D;58487;53.474;49.470;2023-04-15T02:25:22;-2.32;51.59
70867;HTU21D;58487;53.474;49.470;2023-04-15T02:27:48;-2.31;53.04
70867;HTU21D;58487;53.474;49.470;2023-04-15T02:30:14;-2.28;54.41
70867;HTU21D;58487;53.474;49.470;2023-04-15T02:32:41;-2.22;52.97
70867;HTU21D;58487;53.474;49.470;2023-04-15T02:35:26;-2.24;52.49
70867;HTU21D;58487;53.474;49.470;2023-04-15T02:37:52;-2.22;52.08
70867;HTU21D;58487;53.474;49.470;2023-04-15T02:40:19;-2.27;53.10
70867;HTU21D;58487;53.474;49.470;2023-04-15T02:42:45;-2.26;54.37
70867;HTU21D;58487;53.474;49.470;2023-04-15T02:45:14;-2.28;53.01
70867;HTU21D;58487;53.474;49.470;2023-04-15T02:48:22;-2.23;51.62
70867;HTU21D;58487;53.474;49.470;2023-04-15T02:51:17;-2.28;52.60
70867;HTU21D;58487;53.474;49.470;2023-04-15T02:53:47;-2.27;52.63
70867;HTU21D;58487;53.474;49.470;2023-04-15T02:56:34;-2.22;52.67
70867;HTU21D;58487;53.474;49.470;2023-04-15T02:59:00;-2.22;52.71
70867;HTU21D;58487;53.474;49.470;2023-04-15T03:01:26;-2.19;52.05
70867;HTU21D;58487;53.474;49.470;2023-04-15T03:03:53;-2.14;51.72
70867;HTU21D;58487;53.474;49.470;2023-04-15T03:06:19;-2.16;52.44
70867;HTU21D;58487;53.474;49.470;2023-04-15T03:08:45;-2.17;51.70
70867;HTU21D;58487;53.474;49.470;2023-04-15T03:11:14;-2.16;52.06
70867;HTU21D;58487;53.474;49.470;2023-04-15T03:13:41;-2.13;51.56
70867;HTU21D;58487;53.474;49.470;2023-04-15T03:16:08;-2.09;51.36
70867;HTU21D;58487;53.474;49.470;2023-04-15T03:18:34;-2.10;51.61
70867;HTU21D;58487;53.474;49.470;2023-04-15T03:21:09;-1.95;51.29
70867;HTU21D;58487;53.474;49.470;2023-04-15T03:23:50;-2.02;50.08
70867;HTU21D;58487;53.474;49.470;2023-04-15T03:26:30;-1.88;51.06
70867;HTU21D;58487;53.474;49.470;2023-04-15T03:28:57;-1.92;50.73
70867;HTU21D;58487;53.474;49.470;2023-04-15T03:31:23;-1.85;51.02
70867;HTU21D;58487;53.474;49.470;2023-04-15T03:33:49;-1.80;51.98
70867;HTU21D;58487;53.474;49.470;2023-04-15T03:36:18;-1.77;50.87
70867;HTU21D;58487;53.474;49.470;2023-04-15T03:38:48;-1.63;51.04
70867;HTU21D;58487;53.474;49.470;2023-04-15T03:41:15;-1.56;50.69
70867;HTU21D;58487;53.474;49.470;2023-04-15T03:43:41;-1.67;51.21
70867;HTU21D;58487;53.474;49.470;2023-04-15T03:46:07;-1.64;51.25
70867;HTU21D;58487;53.474;49.470;2023-04-15T03:48:33;-1.55;51.26
70867;HTU21D;58487;53.474;49.470;2023-04-15T03:51:00;-1.45;50.63
70867;HTU21D;58487;53.474;49.470;2023-04-15T03:53:26;-1.44;49.89
70867;HTU21D;58487;53.474;49.470;2023-04-15T03:55:52;-1.35;50.09
70867;HTU21D;58487;53.474;49.470;2023-04-15T03:58:19;-1.36;50.29
70867;HTU21D;58487;53.474;49.470;2023-04-15T04:00:45;-1.39;51.56
70867;HTU21D;58487;53.474;49.470;2023-04-15T04:03:11;-1.39;49.92
70867;HTU21D;58487;53.474;49.470;2023-04-15T04:05:52;-1.33;50.88
70867;HTU21D;58487;53.474;49.470;2023-04-15T04:08:22;-1.21;48.93
70867;HTU21D;58487;53.474;49.470;2023-04-15T04:10:48;-1.16;49.21
70867;HTU21D;58487;53.474;49.470;2023-04-15T04:13:14;-1.13;48.16
70867;HTU21D;58487;53.474;49.470;2023-04-15T04:15:40;-1.17;48.39
70867;HTU21D;58487;53.474;49.470;2023-04-15T04:18:07;-1.14;49.50
70867;HTU21D;58487;53.474;49.470;2023-04-15T04:20:33;-1.02;48.61
70867;HTU21D;58487;53.474;49.470;2023-04-15T04:23:00;-0.95;48.25
70867;HTU21D;58487;53.474;49.470;2023-04-15T04:25:26;-0.95;48.34
70867;HTU21D;58487;53.474;49.470;2023-04-15T04:27:53;-0.89;48.34
70867;HTU21D;58487;53.474;49.470;2023-04-15T04:30:19;-0.83;49.02
70867;HTU21D;58487;53.474;49.470;2023-04-15T04:32:49;-0.84;48.28
70867;HTU21D;58487;53.474;49.470;2023-04-15T04:35:16;-0.91;48.40
70867;HTU21D;58487;53.474;49.470;2023-04-15T04:37:43;-0.97;47.75
70867;HTU21D;58487;53.474;49.470;2023-04-15T04:40:10;-0.82;48.99
70867;HTU21D;58487;53.474;49.470;2023-04-15T04:42:38;-0.74;47.29
70867;HTU21D;58487;53.474;49.470;2023-04-15T04:45:05;-0.58;47.64
70867;HTU21D;58487;53.474;49.470;2023-04-15T04:47:31;-0.54;48.60
70867;HTU21D;58487;53.474;49.470;2023-04-15T04:49:57;-0.57;47.31
70867;HTU21D;58487;53.474;49.470;2023-04-15T04:52:24;-0.51;47.43
70867;HTU21D;58487;53.474;49.470;2023-04-15T04:54:50;-0.55;47.57
70867;HTU21D;58487;53.474;49.470;2023-04-15T04:57:16;-0.56;47.20
70867;HTU21D;58487;53.474;49.470;2023-04-15T04:59:43;-0.59;47.56
70867;HTU21D;58487;53.474;49.470;2023-04-15T05:02:09;-0.61;47.21
70867;HTU21D;58487;53.474;49.470;2023-04-15T05:04:35;-0.62;48.52
70867;HTU21D;58487;53.474;49.470;2023-04-15T05:07:02;-0.67;48.02
70867;HTU21D;58487;53.474;49.470;2023-04-15T05:09:28;-0.55;46.90
70867;HTU21D;58487;53.474;49.470;2023-04-15T05:11:57;-0.46;47.86
70867;HTU21D;58487;53.474;49.470;2023-04-15T05:14:23;-0.41;47.24
70867;HTU21D;58487;53.474;49.470;2023-04-15T05:16:49;-0.41;45.95
70867;HTU21D;58487;53.474;49.470;2023-04-15T05:19:16;-0.32;47.22
70867;HTU21D;58487;53.474;49.470;2023-04-15T05:21:42;-0.29;47.67
70867;HTU21D;58487;53.474;49.470;2023-04-15T05:24:08;-0.23;47.49
70867;HTU21D;58487;53.474;49.470;2023-04-15T05:26:35;-0.11;47.97
70867;HTU21D;58487;53.474;49.470;2023-04-15T05:29:01;-0.19;47.72
70867;HTU21D;58487;53.474;49.470;2023-04-15T05:31:31;-0.08;47.79
70867;HTU21D;58487;53.474;49.470;2023-04-15T05:34:00;-0.06;47.73
70867;HTU21D;58487;53.474;49.470;2023-04-15T05:36:30;0.03;47.23
70867;HTU21D;58487;53.474;49.470;2023-04-15T05:38:57;0.17;46.25
70867;HTU21D;58487;53.474;49.470;2023-04-15T05:41:53;0.22;46.74
70867;HTU21D;58487;53.474;49.470;2023-04-15T05:44:43;0.34;46.67
70867;HTU21D;58487;53.474;49.470;2023-04-15T05:47:21;0.48;47.32
70867;HTU21D;58487;53.474;49.470;2023-04-15T05:49:47;0.52;46.78
70867;HTU21D;58487;53.474;49.470;2023-04-15T05:52:47;0.59;46.68
70867;HTU21D;58487;53.474;49.470;2023-04-15T05:55:22;0.69;46.41
70867;HTU21D;58487;53.474;49.470;2023-04-15T05:57:55;0.77;45.73
70867;HTU21D;58487;53.474;49.470;2023-04-15T06:00:22;0.71;46.28
70867;HTU21D;58487;53.474;49.470;2023-04-15T06:03:15;0.71;45.88
70867;HTU21D;58487;53.474;49.470;2023-04-15T06:06:32;0.62;46.64
70867;HTU21D;58487;53.474;49.470;2023-04-15T06:15:35;0.88;46.65
70867;HTU21D;58487;53.474;49.470;2023-04-15T06:18:31;1.14;46.57
70867;HTU21D;58487;53.474;49.470;2023-04-15T06:21:00;1.35;45.72
70867;HTU21D;58487;53.474;49.470;2023-04-15T06:23:38;1.42;45.44
70867;HTU21D;58487;53.474;49.470;2023-04-15T06:26:14;1.19;45.48
70867;HTU21D;58487;53.474;49.470;2023-04-15T06:28:43;1.05;45.89
70867;HTU21D;58487;53.474;49.470;2023-04-15T06:31:09;1.25;45.77
70867;HTU21D;58487;53.474;49.470;2023-04-15T06:33:35;1.42;45.27
70867;HTU21D;58487;53.474;49.470;2023-04-15T06:36:08;1.50;44.32
70867;HTU21D;58487;53.474;49.470;2023-04-15T06:38:37;1.50;44.59
70867;HTU21D;58487;53.474;49.470;2023-04-15T06:41:12;1.78;45.10
70867;HTU21D;58487;53.474;49.470;2023-04-15T06:43:43;1.80;45.18
70867;HTU21D;58487;53.474;49.470;2023-04-15T06:46:09;1.75;44.54
70867;HTU21D;58487;53.474;49.470;2023-04-15T06:48:49;1.86;44.04
70867;HTU21D;58487;53.474;49.470;2023-04-15T06:51:18;1.80;44.50
70867;HTU21D;58487;53.474;49.470;2023-04-15T06:53:47;1.76;44.99
70867;HTU21D;58487;53.474;49.470;2023-04-15T06:56:32;1.88;44.90
70867;HTU21D;58487;53.474;49.470;2023-04-15T06:59:08;1.90;44.82
70867;HTU21D;58487;53.474;49.470;2023-04-15T07:01:34;2.01;45.81
70867;HTU21D;58487;53.474;49.470;2023-04-15T07:04:00;2.12;45.17
70867;HTU21D;58487;53.474;49.470;2023-04-15T07:06:27;2.37;44.51
70867;HTU21D;58487;53.474;49.470;2023-04-15T07:08:53;2.45;44.89
70867;HTU21D;58487;53.474;49.470;2023-04-15T07:11:21;2.51;43.48
70867;HTU21D;58487;53.474;49.470;2023-04-15T07:13:47;2.44;43.23
70867;HTU21D;58487;53.474;49.470;2023-04-15T07:16:20;2.38;42.68
70867;HTU21D;58487;53.474;49.470;2023-04-15T07:18:46;2.40;43.14
70867;HTU21D;58487;53.474;49.470;2023-04-15T07:21:21;2.45;43.28
70867;HTU21D;58487;53.474;49.470;2023-04-15T07:23:56;2.58;42.69
70867;HTU21D;58487;53.474;49.470;2023-04-15T07:26:24;2.73;42.58
70867;HTU21D;58487;53.474;49.470;2023-04-15T07:28:50;2.88;42.46
70867;HTU21D;58487;53.474;49.470;2023-04-15T07:31:20;3.00;40.93
70867;HTU21D;58487;53.474;49.470;2023-04-15T07:33:47;3.20;41.55
70867;HTU21D;58487;53.474;49.470;2023-04-15T07:36:13;3.24;41.05
70867;HTU21D;58487;53.474;49.470;2023-04-15T07:38:40;3.06;40.72
70867;HTU21D;58487;53.474;49.470;2023-04-15T07:41:07;3.11;40.65
70867;HTU21D;58487;53.474;49.470;2023-04-15T07:43:34;3.25;40.91
70867;HTU21D;58487;53.474;49.470;2023-04-15T07:46:00;3.35;41.55
70867;HTU21D;58487;53.474;49.470;2023-04-15T07:48:26;3.65;39.94
70867;HTU21D;58487;53.474;49.470;2023-04-15T07:50:52;3.74;40.56
70867;HTU21D;58487;53.474;49.470;2023-04-15T07:53:19;3.94;39.43
70867;HTU21D;58487;53.474;49.470;2023-04-15T07:55:46;4.12;40.12
70867;HTU21D;58487;53.474;49.470;2023-04-15T07:58:12;4.04;38.09
70867;HTU21D;58487;53.474;49.470;2023-04-15T08:00:38;3.95;38.99
70867;HTU21D;58487;53.474;49.470;2023-04-15T08:03:05;4.05;41.64
70867;HTU21D;58487;53.474;49.470;2023-04-15T08:05:31;4.08;39.87
70867;HTU21D;58487;53.474;49.470;2023-04-15T08:07:58;3.98;39.56
70867;HTU21D;58487;53.474;49.470;2023-04-15T08:10:24;4.10;39.80
70867;HTU21D;58487;53.474;49.470;2023-04-15T08:12:50;4.15;40.59
70867;HTU21D;58487;53.474;49.470;2023-04-15T08:15:21;4.27;41.00
70867;HTU21D;58487;53.474;49.470;2023-04-15T08:17:49;4.39;39.75
70867;HTU21D;58487;53.474;49.470;2023-04-15T08:20:16;4.58;38.82
70867;HTU21D;58487;53.474;49.470;2023-04-15T08:22:42;4.63;37.82
70867;HTU21D;58487;53.474;49.470;2023-04-15T08:25:08;4.65;38.74
70867;HTU21D;58487;53.474;49.470;2023-04-15T08:27:35;4.81;37.91
70867;HTU21D;58487;53.474;49.470;2023-04-15T08:30:01;4.88;36.23
70867;HTU21D;58487;53.474;49.470;2023-04-15T08:32:28;4.83;36.24
70867;HTU21D;58487;53.474;49.470;2023-04-15T08:34:55;4.98;37.18
70867;HTU21D;58487;53.474;49.470;2023-04-15T08:37:21;5.03;35.80
70867;HTU21D;58487;53.474;49.470;2023-04-15T08:39:51;5.40;35.59
70867;HTU21D;58487;53.474;49.470;2023-04-15T08:42:48;5.36;35.62
70867;HTU21D;58487;53.474;49.470;2023-04-15T08:45:18;5.28;35.79
70867;HTU21D;58487;53.474;49.470;2023-04-15T08:47:46;5.27;36.40
70867;HTU21D;58487;53.474;49.470;2023-04-15T08:50:14;5.36;35.11
70867;HTU21D;58487;53.474;49.470;2023-04-15T08:52:41;5.45;35.64
70867;HTU21D;58487;53.474;49.470;2023-04-15T08:55:08;5.52;34.76
70867;HTU21D;58487;53.474;49.470;2023-04-15T08:57:35;5.59;35.28
70867;HTU21D;58487;53.474;49.470;2023-04-15T09:00:03;5.75;36.36
70867;HTU21D;58487;53.474;49.470;2023-04-15T09:02:30;6.02;34.46
70867;HTU21D;58487;53.474;49.470;2023-04-15T09:04:56;5.89;35.48
70867;HTU21D;58487;53.474;49.470;2023-04-15T09:07:23;6.01;35.63
70867;HTU21D;58487;53.474;49.470;2023-04-15T09:09:49;5.92;34.76
70867;HTU21D;58487;53.474;49.470;2023-04-15T09:12:16;6.02;34.96
70867;HTU21D;58487;53.474;49.470;2023-04-15T09:14:44;6.07;33.93
70867;HTU21D;58487;53.474;49.470;2023-04-15T09:17:12;6.34;34.70
70867;HTU21D;58487;53.474;49.470;2023-04-15T09:19:38;6.71;34.83
70867;HTU21D;58487;53.474;49.470;2023-04-15T09:22:05;6.99;34.62
70867;HTU21D;58487;53.474;49.470;2023-04-15T09:24:36;6.88;35.16
70867;HTU21D;58487;53.474;49.470;2023-04-15T09:27:03;6.83;34.66
70867;HTU21D;58487;53.474;49.470;2023-04-15T09:29:30;6.98;35.76
70867;HTU21D;58487;53.474;49.470;2023-04-15T09:32:08;6.99;34.04
70867;HTU21D;58487;53.474;49.470;2023-04-15T09:34:37;7.32;34.73
70867;HTU21D;58487;53.474;49.470;2023-04-15T09:37:03;7.39;34.95
70867;HTU21D;58487;53.474;49.470;2023-04-15T09:39:51;7.57;33.84
70867;HTU21D;58487;53.474;49.470;2023-04-15T09:42:18;8.11;34.25
70867;HTU21D;58487;53.474;49.470;2023-04-15T09:44:51;8.04;34.72
70867;HTU21D;58487;53.474;49.470;2023-04-15T09:49:55;8.53;36.17
70867;HTU21D;58487;53.474;49.470;2023-04-15T09:52:22;8.22;33.66
70867;HTU21D;58487;53.474;49.470;2023-04-15T09:54:52;8.13;32.68
70867;HTU21D;58487;53.474;49.470;2023-04-15T09:57:19;7.89;34.41
70867;HTU21D;58487;53.474;49.470;2023-04-15T09:59:47;8.09;32.38
70867;HTU21D;58487;53.474;49.470;2023-04-15T10:02:17;8.50;32.10
70867;HTU21D;58487;53.474;49.470;2023-04-15T10:04:55;8.48;32.94
70867;HTU21D;58487;53.474;49.470;2023-04-15T10:07:24;8.79;31.93
70867;HTU21D;58487;53.474;49.470;2023-04-15T10:09:51;8.88;32.83
70867;HTU21D;58487;53.474;49.470;2023-04-15T10:12:25;8.73;33.27
70867;HTU21D;58487;53.474;49.470;2023-04-15T10:15:38;8.80;32.44
70867;HTU21D;58487;53.474;49.470;2023-04-15T10:18:06;8.93;32.22
70867;HTU21D;58487;53.474;49.470;2023-04-15T10:20:34;9.30;31.83
70867;HTU21D;58487;53.474;49.470;2023-04-15T10:23:00;9.53;32.32
70867;HTU21D;58487;53.474;49.470;2023-04-15T10:25:32;9.26;32.52
70867;HTU21D;58487;53.474;49.470;2023-04-15T10:27:59;9.42;31.98
70867;HTU21D;58487;53.474;49.470;2023-04-15T10:30:27;9.05;31.50
70867;HTU21D;58487;53.474;49.470;2023-04-15T10:32:55;9.37;31.78
70867;HTU21D;58487;53.474;49.470;2023-04-15T10:35:33;9.44;32.30
70867;HTU21D;58487;53.474;49.470;2023-04-15T10:41:18;9.93;31.15
70867;HTU21D;58487;53.474;49.470;2023-04-15T10:43:54;9.93;32.31
70867;HTU21D;58487;53.474;49.470;2023-04-15T10:46:24;10.08;33.52
70867;HTU21D;58487;53.474;49.470;2023-04-15T10:49:16;10.07;33.73
70867;HTU21D;58487;53.474;49.470;2023-04-15T10:51:59;10.36;35.37
70867;HTU21D;58487;53.474;49.470;2023-04-15T11:02:52;9.95;31.56
70867;HTU21D;58487;53.474;49.470;2023-04-15T11:05:21;10.13;34.24
70867;HTU21D;58487;53.474;49.470;2023-04-15T11:07:55;10.04;32.21
70867;HTU21D;58487;53.474;49.470;2023-04-15T11:12:53;10.25;34.25
70867;HTU21D;58487;53.474;49.470;2023-04-15T11:15:39;10.08;34.41
70867;HTU21D;58487;53.474;49.470;2023-04-15T11:20:41;10.14;34.46
70867;HTU21D;58487;53.474;49.470;2023-04-15T11:23:08;10.27;35.85
70867;HTU21D;58487;53.474;49.470;2023-04-15T11:25:35;10.46;34.88
70867;HTU21D;58487;53.474;49.470;2023-04-15T11:28:05;10.81;32.74
70867;HTU21D;58487;53.474;49.470;2023-04-15T11:30:34;10.85;33.68
70867;HTU21D;58487;53.474;49.470;2023-04-15T11:33:03;10.59;31.80
70867;HTU21D;58487;53.474;49.470;2023-04-15T11:35:30;10.80;29.87
70867;HTU21D;58487;53.474;49.470;2023-04-15T11:37:56;10.68;32.41
70867;HTU21D;58487;53.474;49.470;2023-04-15T11:40:25;11.02;30.80
70867;HTU21D;58487;53.474;49.470;2023-04-15T11:45:46;10.84;32.98
70867;HTU21D;58487;53.474;49.470;2023-04-15T11:48:14;11.42;32.96
70867;HTU21D;58487;53.474;49.470;2023-04-15T11:50:40;10.78;33.92
70867;HTU21D;58487;53.474;49.470;2023-04-15T11:53:08;10.87;32.70
70867;HTU21D;58487;53.474;49.470;2023-04-15T11:55:51;10.86;30.54
70867;HTU21D;58487;53.474;49.470;2023-04-15T11:58:24;11.13;29.86
70867;HTU21D;58487;53.474;49.470;2023-04-15T12:00:53;10.98;30.06
70867;HTU21D;58487;53.474;49.470;2023-04-15T12:03:28;11.05;30.09
70867;HTU21D;58487;53.474;49.470;2023-04-15T12:06:14;10.97;30.42
70867;HTU21D;58487;53.474;49.470;2023-04-15T12:14:05;11.08;29.74
70867;HTU21D;58487;53.474;49.470;2023-04-15T12:16:33;11.37;29.16
70867;HTU21D;58487;53.474;49.470;2023-04-15T12:19:05;11.66;28.20
70867;HTU21D;58487;53.474;49.470;2023-04-15T12:21:35;11.62;28.32
70867;HTU21D;58487;53.474;49.470;2023-04-15T12:24:03;12.03;27.87
70867;HTU21D;58487;53.474;49.470;2023-04-15T12:26:45;11.93;29.52
70867;HTU21D;58487;53.474;49.470;2023-04-15T12:29:18;12.18;27.85
70867;HTU21D;58487;53.474;49.470;2023-04-15T12:31:52;12.11;28.11
70867;HTU21D;58487;53.474;49.470;2023-04-15T12:34:27;12.37;30.24
70867;HTU21D;58487;53.474;49.470;2023-04-15T12:36:55;12.45;28.41
70867;HTU21D;58487;53.474;49.470;2023-04-15T12:39:25;12.03;29.01
70867;HTU21D;58487;53.474;49.470;2023-04-15T12:41:53;12.07;28.89
70867;HTU21D;58487;53.474;49.470;2023-04-15T12:44:23;12.32;29.43
70867;HTU21D;58487;53.474;49.470;2023-04-15T12:46:51;12.44;29.48
70867;HTU21D;58487;53.474;49.470;2023-04-15T12:49:21;12.50;29.66
70867;HTU21D;58487;53.474;49.470;2023-04-15T12:51:50;12.97;29.80
70867;HTU21D;58487;53.474;49.470;2023-04-15T12:54:17;12.79;28.79
70867;HTU21D;58487;53.474;49.470;2023-04-15T12:56:52;12.77;29.61
70867;HTU21D;58487;53.474;49.470;2023-04-15T12:59:19;13.35;29.55
70867;HTU21D;58487;53.474;49.470;2023-04-15T13:01:47;13.52;30.09
70867;HTU21D;58487;53.474;49.470;2023-04-15T13:04:20;13.35;27.42
70867;HTU21D;58487;53.474;49.470;2023-04-15T13:06:47;13.56;30.89
70867;HTU21D;58487;53.474;49.470;2023-04-15T13:09:14;13.50;29.01
70867;HTU21D;58487;53.474;49.470;2023-04-15T13:11:40;14.03;31.83
70867;HTU21D;58487;53.474;49.470;2023-04-15T13:14:08;14.52;33.21
70867;HTU21D;58487;53.474;49.470;2023-04-15T13:16:34;13.79;31.54
70867;HTU21D;58487;53.474;49.470;2023-04-15T13:19:02;13.45;28.37
70867;HTU21D;58487;53.474;49.470;2023-04-15T13:21:30;13.75;29.16
70867;HTU21D;58487;53.474;49.470;2023-04-15T13:23:59;13.66;31.77
70867;HTU21D;58487;53.474;49.470;2023-04-15T13:26:26;13.32;32.36
70867;HTU21D;58487;53.474;49.470;2023-04-15T13:28:53;13.59;29.06
70867;HTU21D;58487;53.474;49.470;2023-04-15T13:31:19;13.20;27.39
70867;HTU21D;58487;53.474;49.470;2023-04-15T13:33:45;13.30;27.39
70867;HTU21D;58487;53.474;49.470;2023-04-15T13:36:13;12.82;27.65
70867;HTU21D;58487;53.474;49.470;2023-04-15T13:38:39;13.23;26.56
70867;HTU21D;58487;53.474;49.470;2023-04-15T13:41:08;13.80;28.19
70867;HTU21D;58487;53.474;49.470;2023-04-15T13:43:40;13.52;27.18
70867;HTU21D;58487;53.474;49.470;2023-04-15T13:46:09;13.60;28.48
70867;HTU21D;58487;53.474;49.470;2023-04-15T13:49:01;13.23;30.16
70867;HTU21D;58487;53.474;49.470;2023-04-15T13:51:47;13.30;28.13
70867;HTU21D;58487;53.474;49.470;2023-04-15T13:54:14;13.67;26.85
70867;HTU21D;58487;53.474;49.470;2023-04-15T13:56:43;13.14;28.59
70867;HTU21D;58487;53.474;49.470;2023-04-15T13:59:10;12.67;30.09
70867;HTU21D;58487;53.474;49.470;2023-04-15T14:01:36;12.84;29.81
70867;HTU21D;58487;53.474;49.470;2023-04-15T14:04:02;12.77;32.47
70867;HTU21D;58487;53.474;49.470;2023-04-15T14:06:29;12.93;27.94
70867;HTU21D;58487;53.474;49.470;2023-04-15T14:08:56;12.53;26.90
70867;HTU21D;58487;53.474;49.470;2023-04-15T14:11:22;13.02;26.72
70867;HTU21D;58487;53.474;49.470;2023-04-15T14:13:51;13.44;25.49
70867;HTU21D;58487;53.474;49.470;2023-04-15T14:16:17;13.39;28.42
70867;HTU21D;58487;53.474;49.470;2023-04-15T14:18:44;13.34;28.43
70867;HTU21D;58487;53.474;49.470;2023-04-15T14:21:13;13.20;27.36
70867;HTU21D;58487;53.474;49.470;2023-04-15T14:23:40;12.92;29.87
70867;HTU21D;58487;53.474;49.470;2023-04-15T14:26:09;12.69;27.69
70867;HTU21D;58487;53.474;49.470;2023-04-15T14:28:37;13.02;29.18
70867;HTU21D;58487;53.474;49.470;2023-04-15T14:31:04;12.01;28.30
70867;HTU21D;58487;53.474;49.470;2023-04-15T14:33:31;10.90;27.44
70867;HTU21D;58487;53.474;49.470;2023-04-15T14:35:57;10.34;28.22
70867;HTU21D;58487;53.474;49.470;2023-04-15T14:38:23;9.96;30.84
70867;HTU21D;58487;53.474;49.470;2023-04-15T14:40:50;9.94;28.71
70867;HTU21D;58487;53.474;49.470;2023-04-15T14:43:16;9.68;29.74
70867;HTU21D;58487;53.474;49.470;2023-04-15T14:45:42;9.54;30.07
70867;HTU21D;58487;53.474;49.470;2023-04-15T14:48:09;9.35;35.26
70867;HTU21D;58487;53.474;49.470;2023-04-15T14:50:38;9.21;32.31
70867;HTU21D;58487;53.474;49.470;2023-04-15T14:53:04;9.17;31.32
70867;HTU21D;58487;53.474;49.470;2023-04-15T14:55:30;9.11;30.83
70867;HTU21D;58487;53.474;49.470;2023-04-15T14:57:57;8.95;31.56
70867;HTU21D;58487;53.474;49.470;2023-04-15T15:00:23;8.82;31.70
70867;HTU21D;58487;53.474;49.470;2023-04-15T15:02:49;8.73;31.18
70867;HTU21D;58487;53.474;49.470;2023-04-15T15:05:15;8.71;33.14
70867;HTU21D;58487;53.474;49.470;2023-04-15T15:07:42;8.65;32.72
70867;HTU21D;58487;53.474;49.470;2023-04-15T15:10:08;8.56;32.18
70867;HTU21D;58487;53.474;49.470;2023-04-15T15:12:35;8.55;32.69
70867;HTU21D;58487;53.474;49.470;2023-04-15T15:15:02;8.55;32.08
70867;HTU21D;58487;53.474;49.470;2023-04-15T15:17:29;8.62;31.86
70867;HTU21D;58487;53.474;49.470;2023-04-15T15:19:56;8.65;32.54
70867;HTU21D;58487;53.474;49.470;2023-04-15T15:22:22;8.59;32.83
70867;HTU21D;58487;53.474;49.470;2023-04-15T15:24:50;8.39;32.83
70867;HTU21D;58487;53.474;49.470;2023-04-15T15:27:24;8.27;32.51
70867;HTU21D;58487;53.474;49.470;2023-04-15T15:29:55;8.20;32.91
70867;HTU21D;58487;53.474;49.470;2023-04-15T15:32:22;8.12;32.87
70867;HTU21D;58487;53.474;49.470;2023-04-15T15:34:48;7.97;32.89
70867;HTU21D;58487;53.474;49.470;2023-04-15T15:37:14;7.93;33.59
70867;HTU21D;58487;53.474;49.470;2023-04-15T15:39:44;7.91;34.38
70867;HTU21D;58487;53.474;49.470;2023-04-15T15:42:13;7.81;34.44
70867;HTU21D;58487;53.474;49.470;2023-04-15T15:44:40;7.78;33.57
70867;HTU21D;58487;53.474;49.470;2023-04-15T15:47:09;7.73;33.88
70867;HTU21D;58487;53.474;49.470;2023-04-15T15:49:35;7.72;34.44
70867;HTU21D;58487;53.474;49.470;2023-04-15T15:52:06;7.70;33.91
70867;HTU21D;58487;53.474;49.470;2023-04-15T15:54:42;7.63;34.79